sensor_id;sensor_type;location;lat;lon;timestamp;pressure;altitude;pressure_sealevel;temperature;humidity
42511;BME280;28141;51.120;17.114;2023-01-13T00:00:44;101102.07;;;26.50;29.36
42511;BME280;28141;51.120;17.114;2023-01-13T00:03:47;101108.75;;;26.49;29.13
42511;BME280;28141;51.120;17.114;2023-01-13T00:06:51;101098.72;;;26.48;29.25
42511;BME280;28141;51.120;17.114;2023-01-13T00:09:54;101083.75;;;26.49;29.54
42511;BME280;28141;51.120;17.114;2023-01-13T00:12:58;101083.98;;;26.47;29.40
42511;BME280;28141;51.120;17.114;2023-01-13T00:16:04;101092.65;;;26.51;29.59
42511;BME280;28141;51.120;17.114;2023-01-13T00:19:08;101088.19;;;26.50;29.51
42511;BME280;28141;51.120;17.114;2023-01-13T00:22:40;101083.13;;;26.47;29.56
42511;BME280;28141;51.120;17.114;2023-01-13T00:25:44;101083.13;;;26.47;29.55
42511;BME280;28141;51.120;17.114;2023-01-13T00:28:47;101084.83;;;26.48;29.54
42511;BME280;28141;51.120;17.114;2023-01-13T00:31:50;101086.52;;;26.49;29.71
42511;BME280;28141;51.120;17.114;2023-01-13T00:34:54;101082.38;;;26.51;29.52
42511;BME280;28141;51.120;17.114;2023-01-13T00:37:58;101079.37;;;26.53;29.32
42511;BME280;28141;51.120;17.114;2023-01-13T00:41:06;101079.37;;;26.53;29.74
42511;BME280;28141;51.120;17.114;2023-01-13T00:44:10;101083.47;;;26.50;29.67
42511;BME280;28141;51.120;17.114;2023-01-13T00:47:13;101078.28;;;26.54;29.40
42511;BME280;28141;51.120;17.114;2023-01-13T00:50:16;101066.09;;;26.55;29.49
42511;BME280;28141;51.120;17.114;2023-01-13T00:53:20;101077.20;;;26.55;29.02
42511;BME280;28141;51.120;17.114;2023-01-13T00:56:50;101077.91;;;26.50;29.57
42511;BME280;28141;51.120;17.114;2023-01-13T00:59:53;101066.56;;;26.52;29.52
42511;BME280;28141;51.120;17.114;2023-01-13T01:02:56;101071.88;;;26.53;29.60
42511;BME280;28141;51.120;17.114;2023-01-13T01:06:07;101064.38;;;26.54;30.00
42511;BME280;28141;51.120;17.114;2023-01-13T01:09:13;101068.87;;;26.55;29.39
42511;BME280;28141;51.120;17.114;2023-01-13T01:12:17;101059.68;;;26.54;29.63
42511;BME280;28141;51.120;17.114;2023-01-13T01:15:20;101054.12;;;26.54;30.01
42511;BME280;28141;51.120;17.114;2023-01-13T01:18:24;101050.50;;;26.54;29.83
42511;BME280;28141;51.120;17.114;2023-01-13T01:21:28;101048.34;;;26.56;29.48
42511;BME280;28141;51.120;17.114;2023-01-13T01:24:31;101045.69;;;26.49;29.58
42511;BME280;28141;51.120;17.114;2023-01-13T01:28:00;101046.18;;;26.46;29.70
42511;BME280;28141;51.120;17.114;2023-01-13T01:31:12;101040.63;;;26.46;29.56
42511;BME280;28141;51.120;17.114;2023-01-13T01:34:16;101041.00;;;26.38;29.99
42511;BME280;28141;51.120;17.114;2023-01-13T01:37:19;101031.07;;;26.42;30.02
42511;BME280;28141;51.120;17.114;2023-01-13T01:40:22;101027.97;;;26.39;29.80
42511;BME280;28141;51.120;17.114;2023-01-13T01:47:22;101019.24;;;26.24;29.99
42511;BME280;28141;51.120;17.114;2023-01-13T01:50:27;101001.38;;;26.31;29.93
42511;BME280;28141;51.120;17.114;2023-01-13T01:53:32;101002.97;;;26.39;29.96
42511;BME280;28141;51.120;17.114;2023-01-13T01:56:36;101002.97;;;26.39;30.18
42511;BME280;28141;51.120;17.114;2023-01-13T01:59:42;101009.09;;;26.41;29.96
42511;BME280;28141;51.120;17.114;2023-01-13T02:02:48;101006.07;;;26.42;29.83
42511;BME280;28141;51.120;17.114;2023-01-13T02:05:52;100999.67;;;26.42;29.84
42511;BME280;28141;51.120;17.114;2023-01-13T02:08:57;100998.22;;;26.39;29.66
42511;BME280;28141;51.120;17.114;2023-01-13T02:12:01;100996.30;;;26.40;30.05
42511;BME280;28141;51.120;17.114;2023-01-13T02:22:24;100980.62;;;26.34;29.76
42511;BME280;28141;51.120;17.114;2023-01-13T02:32:47;100989.17;;;26.21;30.10
42511;BME280;28141;51.120;17.114;2023-01-13T02:36:01;100998.27;;;26.28;30.18
42511;BME280;28141;51.120;17.114;2023-01-13T02:42:57;100996.80;;;26.37;29.92
42511;BME280;28141;51.120;17.114;2023-01-13T02:50:02;100995.59;;;26.33;30.08
42511;BME280;28141;51.120;17.114;2023-01-13T02:53:21;100985.18;;;26.40;30.09
42511;BME280;28141;51.120;17.114;2023-01-13T02:56:22;100990.86;;;26.45;30.19
42511;BME280;28141;51.120;17.114;2023-01-13T02:59:27;100989.30;;;26.49;29.95
42511;BME280;28141;51.120;17.114;2023-01-13T03:02:32;100978.75;;;26.51;29.83
42511;BME280;28141;51.120;17.114;2023-01-13T03:05:36;100985.39;;;26.50;29.70
42511;BME280;28141;51.120;17.114;2023-01-13T03:25:59;100979.04;;;26.26;30.12
42511;BME280;28141;51.120;17.114;2023-01-13T03:35:38;100975.55;;;26.31;30.16
42511;BME280;28141;51.120;17.114;2023-01-13T03:39:16;100979.06;;;26.38;30.08
42511;BME280;28141;51.120;17.114;2023-01-13T03:42:24;100976.27;;;26.38;29.97
42511;BME280;28141;51.120;17.114;2023-01-13T03:45:29;100968.52;;;26.40;29.77
42511;BME280;28141;51.120;17.114;2023-01-13T03:48:36;100982.41;;;26.40;30.14
42511;BME280;28141;51.120;17.114;2023-01-13T03:51:47;100972.50;;;26.44;29.82
42511;BME280;28141;51.120;17.114;2023-01-13T03:54:58;100964.16;;;26.44;29.74
42511;BME280;28141;51.120;17.114;2023-01-13T03:58:32;100968.03;;;26.43;29.99
42511;BME280;28141;51.120;17.114;2023-01-13T04:02:02;100966.70;;;26.45;29.70
42511;BME280;28141;51.120;17.114;2023-01-13T04:04:59;100967.79;;;26.44;29.95
42511;BME280;28141;51.120;17.114;2023-01-13T04:08:20;100959.22;;;26.46;29.90
42511;BME280;28141;51.120;17.114;2023-01-13T04:11:29;100959.94;;;26.41;30.26
42511;BME280;28141;51.120;17.114;2023-01-13T04:15:01;100966.34;;;26.42;30.03
42511;BME280;28141;51.120;17.114;2023-01-13T04:21:20;100956.93;;;26.43;29.96
42511;BME280;28141;51.120;17.114;2023-01-13T04:24:24;100958.61;;;26.44;30.18
42511;BME280;28141;51.120;17.114;2023-01-13T04:27:27;100952.06;;;26.50;29.76
42511;BME280;28141;51.120;17.114;2023-01-13T04:30:31;100955.44;;;26.52;29.88
42511;BME280;28141;51.120;17.114;2023-01-13T04:33:34;100946.77;;;26.48;30.06
42511;BME280;28141;51.120;17.114;2023-01-13T04:36:38;100944.84;;;26.49;30.12
42511;BME280;28141;51.120;17.114;2023-01-13T04:39:41;100945.69;;;26.49;30.03
42511;BME280;28141;51.120;17.114;2023-01-13T04:42:45;100938.44;;;26.48;30.14
42511;BME280;28141;51.120;17.114;2023-01-13T04:46:14;100943.15;;;26.48;30.02
42511;BME280;28141;51.120;17.114;2023-01-13T04:49:18;100937.59;;;26.48;30.04
42511;BME280;28141;51.120;17.114;2023-01-13T04:52:21;100942.55;;;26.46;30.20
42511;BME280;28141;51.120;17.114;2023-01-13T04:55:25;100935.39;;;26.50;29.96
42511;BME280;28141;51.120;17.114;2023-01-13T04:58:29;100937.93;;;26.51;30.17
42511;BME280;28141;51.120;17.114;2023-01-13T05:01:32;100937.20;;;26.56;29.63
42511;BME280;28141;51.120;17.114;2023-01-13T05:04:35;100941.91;;;26.56;29.77
42511;BME280;28141;51.120;17.114;2023-01-13T05:07:39;100935.27;;;26.57;29.88
42511;BME280;28141;51.120;17.114;2023-01-13T05:10:42;100938.64;;;26.59;29.95
42511;BME280;28141;51.120;17.114;2023-01-13T05:13:45;100942.76;;;26.56;30.09
42511;BME280;28141;51.120;17.114;2023-01-13T05:17:27;100937.07;;;26.51;29.91
42511;BME280;28141;51.120;17.114;2023-01-13T05:20:30;100931.64;;;26.56;29.78
42511;BME280;28141;51.120;17.114;2023-01-13T05:23:34;100935.62;;;26.60;29.88
42511;BME280;28141;51.120;17.114;2023-01-13T05:26:51;100939.38;;;26.54;29.76
42511;BME280;28141;51.120;17.114;2023-01-13T05:29:55;100940.34;;;26.60;29.78
42511;BME280;28141;51.120;17.114;2023-01-13T05:32:59;100940.66;;;26.63;29.86
42511;BME280;28141;51.120;17.114;2023-01-13T05:36:03;100935.10;;;26.63;29.95
42511;BME280;28141;51.120;17.114;2023-01-13T05:39:07;100937.15;;;26.68;29.60
42511;BME280;28141;51.120;17.114;2023-01-13T05:42:11;100940.77;;;26.68;29.63
42511;BME280;28141;51.120;17.114;2023-01-13T05:45:56;100942.02;;;26.61;29.85
42511;BME280;28141;51.120;17.114;2023-01-13T05:49:00;100939.69;;;26.69;30.05
42511;BME280;28141;51.120;17.114;2023-01-13T05:52:04;100938.67;;;26.75;29.98
42511;BME280;28141;51.120;17.114;2023-01-13T05:55:09;100942.06;;;26.77;29.75
42511;BME280;28141;51.120;17.114;2023-01-13T05:58:14;100930.10;;;26.77;29.80
42511;BME280;28141;51.120;17.114;2023-01-13T06:01:18;100943.59;;;26.85;29.71
42511;BME280;28141;51.120;17.114;2023-01-13T06:04:21;100949.15;;;26.85;30.06
42511;BME280;28141;51.120;17.114;2023-01-13T06:07:24;100944.19;;;26.87;29.85
42511;BME280;28141;51.120;17.114;2023-01-13T06:10:29;100941.40;;;26.87;29.95
42511;BME280;28141;51.120;17.114;2023-01-13T06:13:32;100947.81;;;26.87;29.78
42511;BME280;28141;51.120;17.114;2023-01-13T06:17:02;100947.81;;;26.87;29.76
42511;BME280;28141;51.120;17.114;2023-01-13T06:20:06;100942.26;;;26.87;29.83
42511;BME280;28141;51.120;17.114;2023-01-13T06:23:11;100941.77;;;26.90;29.72
42511;BME280;28141;51.120;17.114;2023-01-13T06:26:19;100934.27;;;26.91;29.91
42511;BME280;28141;51.120;17.114;2023-01-13T06:29:25;100939.61;;;26.93;29.81
42511;BME280;28141;51.120;17.114;2023-01-13T06:32:32;100952.38;;;26.94;29.60
42511;BME280;28141;51.120;17.114;2023-01-13T06:35:43;100946.34;;;26.97;30.02
42511;BME280;28141;51.120;17.114;2023-01-13T06:38:52;100943.55;;;26.97;29.92
42511;BME280;28141;51.120;17.114;2023-01-13T06:42:28;100941.27;;;26.94;29.61
42511;BME280;28141;51.120;17.114;2023-01-13T06:45:48;100941.05;;;26.83;29.52
42511;BME280;28141;51.120;17.114;2023-01-13T06:48:52;100937.89;;;26.92;29.55
42511;BME280;28141;51.120;17.114;2023-01-13T06:51:56;100942.40;;;26.93;29.60
42511;BME280;28141;51.120;17.114;2023-01-13T06:54:59;100939.61;;;26.93;29.66
42511;BME280;28141;51.120;17.114;2023-01-13T06:58:03;100945.17;;;26.93;29.67
42511;BME280;28141;51.120;17.114;2023-01-13T07:01:07;100943.23;;;26.93;29.64
42511;BME280;28141;51.120;17.114;2023-01-13T07:04:11;100946.01;;;26.93;29.77
42511;BME280;28141;51.120;17.114;2023-01-13T07:07:41;100943.45;;;26.92;29.63
42511;BME280;28141;51.120;17.114;2023-01-13T07:10:45;100938.13;;;26.90;29.63
42511;BME280;28141;51.120;17.114;2023-01-13T07:13:48;100944.05;;;26.94;29.90
42511;BME280;28141;51.120;17.114;2023-01-13T07:17:04;100942.49;;;26.86;29.82
42511;BME280;28141;51.120;17.114;2023-01-13T07:20:08;100943.93;;;26.88;30.05
42511;BME280;28141;51.120;17.114;2023-01-13T07:23:12;100937.27;;;27.01;30.24
42511;BME280;28141;51.120;17.114;2023-01-13T07:26:16;100939.38;;;27.11;30.39
42511;BME280;28141;51.120;17.114;2023-01-13T07:29:19;100937.87;;;27.20;30.73
42511;BME280;28141;51.120;17.114;2023-01-13T07:32:23;100943.00;;;27.28;30.52
42511;BME280;28141;51.120;17.114;2023-01-13T07:35:26;100939.91;;;27.24;30.58
42511;BME280;28141;51.120;17.114;2023-01-13T07:38:56;100936.59;;;27.28;30.54
42511;BME280;28141;51.120;17.114;2023-01-13T07:42:02;100946.88;;;27.27;30.73
42511;BME280;28141;51.120;17.114;2023-01-13T07:45:18;100947.41;;;27.24;30.37
42511;BME280;28141;51.120;17.114;2023-01-13T07:48:21;100949.41;;;27.29;30.79
42511;BME280;28141;51.120;17.114;2023-01-13T07:51:24;100951.09;;;27.30;30.76
42511;BME280;28141;51.120;17.114;2023-01-13T07:54:28;100944.38;;;27.25;30.51
42511;BME280;28141;51.120;17.114;2023-01-13T07:57:31;100944.38;;;27.25;30.56
42511;BME280;28141;51.120;17.114;2023-01-13T08:00:36;100939.63;;;27.26;30.12
42511;BME280;28141;51.120;17.114;2023-01-13T08:04:08;100936.03;;;27.25;30.23
42511;BME280;28141;51.120;17.114;2023-01-13T08:07:11;100951.09;;;27.30;30.01
42511;BME280;28141;51.120;17.114;2023-01-13T08:10:15;100944.55;;;27.36;30.16
42511;BME280;28141;51.120;17.114;2023-01-13T08:13:19;100938.20;;;27.40;30.13
42511;BME280;28141;51.120;17.114;2023-01-13T08:16:24;100943.18;;;27.38;29.63
42511;BME280;28141;51.120;17.114;2023-01-13T08:19:27;100951.52;;;27.38;29.91
42511;BME280;28141;51.120;17.114;2023-01-13T08:22:31;100943.77;;;27.40;30.04
42511;BME280;28141;51.120;17.114;2023-01-13T08:25:35;100949.92;;;27.42;29.45
42511;BME280;28141;51.120;17.114;2023-01-13T08:28:39;100955.56;;;27.47;30.12
42511;BME280;28141;51.120;17.114;2023-01-13T08:31:42;100949.75;;;27.49;29.68
42511;BME280;28141;51.120;17.114;2023-01-13T08:34:46;100955.79;;;27.57;30.16
42511;BME280;28141;51.120;17.114;2023-01-13T08:38:17;100954.81;;;27.52;29.97
42511;BME280;28141;51.120;17.114;2023-01-13T08:41:20;100956.94;;;27.61;30.33
42511;BME280;28141;51.120;17.114;2023-01-13T08:44:35;100957.45;;;27.58;29.87
42511;BME280;28141;51.120;17.114;2023-01-13T08:47:39;100945.91;;;27.67;29.69
42511;BME280;28141;51.120;17.114;2023-01-13T08:50:42;100952.38;;;27.72;29.39
42511;BME280;28141;51.120;17.114;2023-01-13T08:53:46;100959.38;;;27.75;30.02
42511;BME280;28141;51.120;17.114;2023-01-13T08:56:49;100961.41;;;27.79;29.33
42511;BME280;28141;51.120;17.114;2023-01-13T08:59:53;100959.04;;;27.88;29.76
42511;BME280;28141;51.120;17.114;2023-01-13T09:02:58;100963.42;;;27.84;29.70
42511;BME280;28141;51.120;17.114;2023-01-13T09:06:31;100969.49;;;27.81;29.87
42511;BME280;28141;51.120;17.114;2023-01-13T09:09:35;100967.89;;;27.85;29.75
42511;BME280;28141;51.120;17.114;2023-01-13T09:12:39;100960.89;;;27.82;30.02
42511;BME280;28141;51.120;17.114;2023-01-13T09:15:54;100967.30;;;27.83;30.57
42511;BME280;28141;51.120;17.114;2023-01-13T09:20:49;100977.58;;;27.82;29.94
42511;BME280;28141;51.120;17.114;2023-01-13T09:23:52;100971.52;;;27.85;29.32
42511;BME280;28141;51.120;17.114;2023-01-13T09:26:56;100971.08;;;27.93;30.14
42511;BME280;28141;51.120;17.114;2023-01-13T09:29:59;100966.70;;;27.97;30.04
42511;BME280;28141;51.120;17.114;2023-01-13T09:33:03;100962.57;;;28.00;29.48
42511;BME280;28141;51.120;17.114;2023-01-13T09:36:18;100969.64;;;27.91;29.92
42511;BME280;28141;51.120;17.114;2023-01-13T09:39:22;100960.53;;;27.95;29.74
42511;BME280;28141;51.120;17.114;2023-01-13T09:42:38;100961.48;;;28.01;29.26
42511;BME280;28141;51.120;17.114;2023-01-13T09:49:46;100959.57;;;27.68;29.86
42511;BME280;28141;51.120;17.114;2023-01-13T09:52:50;100962.23;;;27.80;30.06
42511;BME280;28141;51.120;17.114;2023-01-13T09:55:55;100959.54;;;27.85;30.22
42511;BME280;28141;51.120;17.114;2023-01-13T09:58:58;100966.54;;;27.87;29.44
42511;BME280;28141;51.120;17.114;2023-01-13T10:05:48;100956.35;;;27.76;29.92
42511;BME280;28141;51.120;17.114;2023-01-13T10:08:58;100948.40;;;27.85;30.06
42511;BME280;28141;51.120;17.114;2023-01-13T10:12:04;100949.05;;;27.92;29.89
42511;BME280;28141;51.120;17.114;2023-01-13T10:15:24;100945.12;;;27.88;29.72
42511;BME280;28141;51.120;17.114;2023-01-13T10:22:23;100933.19;;;27.92;29.77
42511;BME280;28141;51.120;17.114;2023-01-13T10:28:52;100933.92;;;28.05;29.76
42511;BME280;28141;51.120;17.114;2023-01-13T10:31:57;100932.63;;;28.12;29.89
42511;BME280;28141;51.120;17.114;2023-01-13T10:35:01;100926.07;;;28.18;30.20
42511;BME280;28141;51.120;17.114;2023-01-13T10:38:40;100921.68;;;28.22;29.63
42511;BME280;28141;51.120;17.114;2023-01-13T10:41:44;100910.00;;;28.25;29.39
42511;BME280;28141;51.120;17.114;2023-01-13T10:44:54;100908.98;;;28.31;29.66
42511;BME280;28141;51.120;17.114;2023-01-13T10:48:09;100914.55;;;28.31;29.65
42511;BME280;28141;51.120;17.114;2023-01-13T10:51:26;100904.55;;;28.36;29.17
42511;BME280;28141;51.120;17.114;2023-01-13T10:54:56;100918.55;;;28.41;29.46
42511;BME280;28141;51.120;17.114;2023-01-13T11:01:22;100908.55;;;28.45;29.95
42511;BME280;28141;51.120;17.114;2023-01-13T11:04:31;100905.84;;;28.50;29.73
42511;BME280;28141;51.120;17.114;2023-01-13T11:07:40;100890.29;;;28.54;29.68
42511;BME280;28141;51.120;17.114;2023-01-13T11:11:25;100900.97;;;28.62;29.49
42511;BME280;28141;51.120;17.114;2023-01-13T11:14:41;100907.89;;;28.59;29.54
42511;BME280;28141;51.120;17.114;2023-01-13T11:17:49;100901.19;;;28.55;29.71
42511;BME280;28141;51.120;17.114;2023-01-13T11:21:08;100900.05;;;28.56;29.29
42511;BME280;28141;51.120;17.114;2023-01-13T11:28:04;100895.13;;;28.63;29.46
42511;BME280;28141;51.120;17.114;2023-01-13T11:31:21;100893.12;;;28.59;29.31
42511;BME280;28141;51.120;17.114;2023-01-13T11:34:36;100890.40;;;28.64;29.29
42511;BME280;28141;51.120;17.114;2023-01-13T11:44:55;100880.54;;;28.56;29.32
42511;BME280;28141;51.120;17.114;2023-01-13T11:47:57;100878.99;;;28.65;29.14
42511;BME280;28141;51.120;17.114;2023-01-13T11:51:33;100888.48;;;28.69;28.78
42511;BME280;28141;51.120;17.114;2023-01-13T12:01:15;100892.02;;;28.60;28.57
42511;BME280;28141;51.120;17.114;2023-01-13T12:08:15;100886.70;;;28.58;28.47
42511;BME280;28141;51.120;17.114;2023-01-13T12:28:15;100883.18;;;28.68;28.93
42511;BME280;28141;51.120;17.114;2023-01-13T12:31:48;100882.62;;;28.66;28.89
42511;BME280;28141;51.120;17.114;2023-01-13T12:41:39;100885.96;;;28.68;28.77
42511;BME280;28141;51.120;17.114;2023-01-13T12:45:25;100870.56;;;28.60;28.82
42511;BME280;28141;51.120;17.114;2023-01-13T12:55:10;100866.84;;;28.77;28.27
42511;BME280;28141;51.120;17.114;2023-01-13T12:58:41;100871.57;;;28.76;28.64
42511;BME280;28141;51.120;17.114;2023-01-13T13:01:47;100868.98;;;28.69;28.94
42511;BME280;28141;51.120;17.114;2023-01-13T13:04:53;100883.37;;;28.83;28.77
42511;BME280;28141;51.120;17.114;2023-01-13T13:11:33;100887.52;;;28.81;29.28
42511;BME280;28141;51.120;17.114;2023-01-13T13:15:23;100899.97;;;28.73;29.01
42511;BME280;28141;51.120;17.114;2023-01-13T13:18:27;100896.59;;;28.71;29.70
42511;BME280;28141;51.120;17.114;2023-01-13T13:28:37;100892.09;;;28.65;29.00
42511;BME280;28141;51.120;17.114;2023-01-13T13:42:20;100910.66;;;28.32;29.42
42511;BME280;28141;51.120;17.114;2023-01-13T13:45:37;100906.23;;;28.37;29.10
42511;BME280;28141;51.120;17.114;2023-01-13T13:48:54;100910.38;;;28.34;29.70
42511;BME280;28141;51.120;17.114;2023-01-13T13:52:06;100911.22;;;28.34;29.45
42511;BME280;28141;51.120;17.114;2023-01-13T13:55:39;100916.35;;;28.43;29.22
42511;BME280;28141;51.120;17.114;2023-01-13T13:58:48;100917.20;;;28.43;29.49
42511;BME280;28141;51.120;17.114;2023-01-13T14:01:56;100925.23;;;28.40;29.24
42511;BME280;28141;51.120;17.114;2023-01-13T14:05:16;100919.66;;;28.40;29.59
42511;BME280;28141;51.120;17.114;2023-01-13T14:08:21;100920.71;;;28.33;28.71
42511;BME280;28141;51.120;17.114;2023-01-13T14:11:27;100927.38;;;28.32;29.03
42511;BME280;28141;51.120;17.114;2023-01-13T14:14:57;100946.80;;;28.27;29.36
42511;BME280;28141;51.120;17.114;2023-01-13T14:18:04;100942.53;;;28.20;29.60
42511;BME280;28141;51.120;17.114;2023-01-13T14:21:21;100950.38;;;28.23;29.49
42511;BME280;28141;51.120;17.114;2023-01-13T14:24:25;100962.02;;;28.20;29.18
42511;BME280;28141;51.120;17.114;2023-01-13T14:27:29;100958.40;;;28.19;29.43
42511;BME280;28141;51.120;17.114;2023-01-13T14:30:33;100963.98;;;28.19;29.55
42511;BME280;28141;51.120;17.114;2023-01-13T14:33:43;100975.11;;;28.19;29.02
42511;BME280;28141;51.120;17.114;2023-01-13T14:40:38;100990.26;;;27.90;30.06
42511;BME280;28141;51.120;17.114;2023-01-13T14:43:50;100999.17;;;27.92;29.48
42511;BME280;28141;51.120;17.114;2023-01-13T14:47:02;100994.44;;;27.92;30.28
42511;BME280;28141;51.120;17.114;2023-01-13T14:50:35;101005.17;;;27.84;30.05
42511;BME280;28141;51.120;17.114;2023-01-13T14:53:44;101009.73;;;27.73;30.17
42511;BME280;28141;51.120;17.114;2023-01-13T14:56:50;101009.98;;;27.72;30.66
42511;BME280;28141;51.120;17.114;2023-01-13T15:03:16;101019.96;;;27.68;30.19
42511;BME280;28141;51.120;17.114;2023-01-13T15:06:21;101024.83;;;27.60;30.92
42511;BME280;28141;51.120;17.114;2023-01-13T15:09:59;101019.52;;;27.59;30.61
42511;BME280;28141;51.120;17.114;2023-01-13T15:13:05;101017.33;;;27.61;30.49
42511;BME280;28141;51.120;17.114;2023-01-13T15:19:27;101029.95;;;27.52;30.12
42511;BME280;28141;51.120;17.114;2023-01-13T15:22:30;101021.59;;;27.52;30.95
42511;BME280;28141;51.120;17.114;2023-01-13T15:25:40;101026.32;;;27.51;31.42
42511;BME280;28141;51.120;17.114;2023-01-13T15:29:13;101031.21;;;27.44;30.99
42511;BME280;28141;51.120;17.114;2023-01-13T15:32:21;101032.30;;;27.43;30.84
42511;BME280;28141;51.120;17.114;2023-01-13T15:35:26;101029.52;;;27.43;30.70
42511;BME280;28141;51.120;17.114;2023-01-13T15:38:30;101033.89;;;27.39;31.00
42511;BME280;28141;51.120;17.114;2023-01-13T15:41:33;101028.84;;;27.36;31.63
42511;BME280;28141;51.120;17.114;2023-01-13T15:44:49;101040.27;;;27.23;31.21
42511;BME280;28141;51.120;17.114;2023-01-13T15:48:31;101032.23;;;27.10;31.60
42511;BME280;28141;51.120;17.114;2023-01-13T15:51:35;101035.20;;;27.20;31.93
42511;BME280;28141;51.120;17.114;2023-01-13T15:54:41;101016.34;;;27.22;31.20
42511;BME280;28141;51.120;17.114;2023-01-13T15:57:47;101025.28;;;27.24;31.60
42511;BME280;28141;51.120;17.114;2023-01-13T16:00:54;101025.85;;;27.26;31.89
42511;BME280;28141;51.120;17.114;2023-01-13T16:03:57;101029.15;;;27.23;31.57
42511;BME280;28141;51.120;17.114;2023-01-13T16:07:01;101038.34;;;27.23;31.54
42511;BME280;28141;51.120;17.114;2023-01-13T16:10:10;101035.81;;;27.22;31.54
42511;BME280;28141;51.120;17.114;2023-01-13T16:13:16;101028.05;;;27.24;31.75
42511;BME280;28141;51.120;17.114;2023-01-13T16:16:46;101051.88;;;27.20;31.61
42511;BME280;28141;51.120;17.114;2023-01-13T16:19:50;101047.90;;;27.16;31.30
42511;BME280;28141;51.120;17.114;2023-01-13T16:22:54;101050.96;;;27.14;31.66
42511;BME280;28141;51.120;17.114;2023-01-13T16:25:57;101056.53;;;27.14;31.49
42511;BME280;28141;51.120;17.114;2023-01-13T16:29:01;101047.84;;;27.11;32.02
42511;BME280;28141;51.120;17.114;2023-01-13T16:32:04;101056.66;;;27.08;31.56
42511;BME280;28141;51.120;17.114;2023-01-13T16:35:08;101060.20;;;27.03;31.75
42511;BME280;28141;51.120;17.114;2023-01-13T16:38:16;101077.13;;;27.02;31.87
42511;BME280;28141;51.120;17.114;2023-01-13T16:41:21;101083.16;;;26.99;32.02
42511;BME280;28141;51.120;17.114;2023-01-13T16:44:27;101077.25;;;26.95;31.67
42511;BME280;28141;51.120;17.114;2023-01-13T16:47:56;101089.33;;;26.89;32.09
42511;BME280;28141;51.120;17.114;2023-01-13T16:51:00;101084.62;;;26.89;32.20
42511;BME280;28141;51.120;17.114;2023-01-13T16:54:03;101083.77;;;26.89;31.93
42511;BME280;28141;51.120;17.114;2023-01-13T16:57:11;101094.89;;;26.89;32.11
42511;BME280;28141;51.120;17.114;2023-01-13T17:00:16;101097.44;;;26.90;32.47
42511;BME280;28141;51.120;17.114;2023-01-13T17:03:20;101103.23;;;26.89;32.57
42511;BME280;28141;51.120;17.114;2023-01-13T17:06:34;101101.54;;;26.88;32.03
42511;BME280;28141;51.120;17.114;2023-01-13T17:09:39;101101.41;;;26.83;32.21
42511;BME280;28141;51.120;17.114;2023-01-13T17:13:09;101112.20;;;26.79;32.28
42511;BME280;28141;51.120;17.114;2023-01-13T17:16:19;101122.23;;;26.80;32.34
42511;BME280;28141;51.120;17.114;2023-01-13T17:19:24;101113.53;;;26.77;32.26
42511;BME280;28141;51.120;17.114;2023-01-13T17:22:28;101121.63;;;26.78;32.81
42511;BME280;28141;51.120;17.114;2023-01-13T17:25:32;101120.78;;;26.78;32.39
42511;BME280;28141;51.120;17.114;2023-01-13T17:28:36;101115.09;;;26.73;32.45
42511;BME280;28141;51.120;17.114;2023-01-13T17:31:39;101104.48;;;26.70;32.49
42511;BME280;28141;51.120;17.114;2023-01-13T17:34:43;101105.82;;;26.67;32.58
42511;BME280;28141;51.120;17.114;2023-01-13T17:37:47;101116.80;;;26.62;32.45
42511;BME280;28141;51.120;17.114;2023-01-13T17:40:50;101124.89;;;26.64;32.41
42511;BME280;28141;51.120;17.114;2023-01-13T17:44:22;101128.42;;;26.59;32.59
42511;BME280;28141;51.120;17.114;2023-01-13T17:47:25;101127.81;;;26.57;32.82
42511;BME280;28141;51.120;17.114;2023-01-13T17:50:28;101134.46;;;26.56;32.86
42511;BME280;28141;51.120;17.114;2023-01-13T17:53:36;101138.32;;;26.55;32.51
42511;BME280;28141;51.120;17.114;2023-01-13T17:56:43;101140.73;;;26.51;32.50
42511;BME280;28141;51.120;17.114;2023-01-13T17:59:46;101147.38;;;26.50;32.68
42511;BME280;28141;51.120;17.114;2023-01-13T18:02:50;101149.06;;;26.51;32.77
42511;BME280;28141;51.120;17.114;2023-01-13T18:05:53;101144.96;;;26.54;32.54
42511;BME280;28141;51.120;17.114;2023-01-13T18:08:58;101146.52;;;26.50;32.67
42511;BME280;28141;51.120;17.114;2023-01-13T18:12:02;101153.77;;;26.51;32.79
42511;BME280;28141;51.120;17.114;2023-01-13T18:15:32;101153.77;;;26.51;32.65
42511;BME280;28141;51.120;17.114;2023-01-13T18:18:37;101145.71;;;26.49;32.30
42511;BME280;28141;51.120;17.114;2023-01-13T18:21:42;101147.38;;;26.50;32.52
42511;BME280;28141;51.120;17.114;2023-01-13T18:24:58;101148.21;;;26.39;32.69
42511;BME280;28141;51.120;17.114;2023-01-13T18:28:13;101149.43;;;26.32;32.99
42511;BME280;28141;51.120;17.114;2023-01-13T18:31:17;101160.17;;;26.40;32.74
42511;BME280;28141;51.120;17.114;2023-01-13T18:34:23;101164.06;;;26.39;32.71
42511;BME280;28141;51.120;17.114;2023-01-13T18:38:00;101159.59;;;26.38;32.75
42511;BME280;28141;51.120;17.114;2023-01-13T18:41:04;101163.93;;;26.34;32.75
42511;BME280;28141;51.120;17.114;2023-01-13T18:44:17;101161.76;;;26.36;32.95
42511;BME280;28141;51.120;17.114;2023-01-13T18:47:20;101165.01;;;26.33;32.58
42511;BME280;28141;51.120;17.114;2023-01-13T18:50:24;101177.20;;;26.32;32.63
42511;BME280;28141;51.120;17.114;2023-01-13T18:53:29;101174.89;;;26.29;32.57